createdAt,value
2023-01-19T00:00:19.200Z,19.23
2023-01-19T00:01:19.941Z,19.24
2023-01-19T00:02:21.813Z,19.23
2023-01-19T00:03:23.643Z,19.20
2023-01-19T00:04:25.450Z,19.23
2023-01-19T00:05:26.218Z,19.17
2023-01-19T00:06:28.079Z,19.22
2023-01-19T00:07:29.929Z,19.23
2023-01-19T00:08:31.762Z,19.22
2023-01-19T00:09:33.611Z,19.22
2023-01-19T00:10:35.408Z,19.22
2023-01-19T00:11:36.149Z,19.23
2023-01-19T00:12:37.987Z,19.23
2023-01-19T00:13:39.808Z,19.22
2023-01-19T00:14:41.656Z,19.24
2023-01-19T00:15:43.496Z,19.24
2023-01-19T00:16:44.258Z,19.24
2023-01-19T00:17:46.043Z,19.24
2023-01-19T00:18:47.838Z,19.24
2023-01-19T00:19:49.650Z,19.24
2023-01-19T00:20:50.391Z,19.19
2023-01-19T00:21:52.189Z,19.19
2023-01-19T00:22:53.977Z,19.22
2023-01-19T00:23:55.803Z,19.22
2023-01-19T00:24:57.666Z,19.24
2023-01-19T00:25:58.421Z,19.29
2023-01-19T00:27:00.224Z,19.29
2023-01-19T00:28:02.174Z,19.26
2023-01-19T00:29:03.987Z,19.26
2023-01-19T00:30:05.802Z,19.26
2023-01-19T00:31:06.599Z,19.23
2023-01-19T00:32:08.446Z,19.23
2023-01-19T00:33:10.237Z,19.23
2023-01-19T00:34:12.031Z,19.22
2023-01-19T00:35:13.854Z,19.24
2023-01-19T00:36:15.644Z,19.27
2023-01-19T00:37:16.389Z,19.23
2023-01-19T00:38:17.850Z,19.27
2023-01-19T00:39:19.696Z,19.27
2023-01-19T00:40:20.477Z,19.24
2023-01-19T00:41:22.293Z,19.23
2023-01-19T00:42:24.084Z,19.26
2023-01-19T00:43:25.915Z,19.23
2023-01-19T00:44:27.744Z,19.26
2023-01-19T00:45:28.586Z,19.30
2023-01-19T00:46:30.417Z,19.29
2023-01-19T00:47:32.214Z,19.29
2023-01-19T00:48:34.007Z,19.30
2023-01-19T00:49:35.848Z,19.29
2023-01-19T00:50:37.672Z,19.24
2023-01-19T00:51:38.410Z,19.26
2023-01-19T00:52:39.907Z,19.32
2023-01-19T00:53:41.710Z,19.29
2023-01-19T00:54:42.445Z,19.30
2023-01-19T00:55:44.279Z,19.26
2023-01-19T00:56:46.086Z,19.24
2023-01-19T00:57:47.895Z,19.24
2023-01-19T00:58:49.810Z,19.27
2023-01-19T00:59:51.632Z,19.30
2023-01-19T01:00:52.435Z,19.29
2023-01-19T01:01:54.486Z,19.29
2023-01-19T01:02:54.382Z,19.29
2023-01-19T01:03:56.198Z,19.27
2023-01-19T01:04:57.993Z,19.30
2023-01-19T01:05:59.818Z,19.30
2023-01-19T01:07:01.636Z,19.30
2023-01-19T01:08:02.402Z,19.32
2023-01-19T01:09:04.194Z,19.30
2023-01-19T01:10:05.998Z,19.29
2023-01-19T01:11:07.834Z,19.34
2023-01-19T01:12:09.688Z,19.27
2023-01-19T01:13:21.323Z,19.29
2023-01-19T01:14:11.809Z,19.32
2023-01-19T01:15:13.530Z,19.30
2023-01-19T01:16:15.494Z,19.30
2023-01-19T01:17:17.348Z,19.32
2023-01-19T01:18:19.146Z,19.29
2023-01-19T01:19:20.377Z,19.29
2023-01-19T01:20:21.132Z,19.27
2023-01-19T01:21:21.884Z,19.29
2023-01-19T01:22:23.684Z,19.30
2023-01-19T01:23:25.514Z,19.24
2023-01-19T01:24:27.335Z,19.27
2023-01-19T01:25:29.140Z,19.32
2023-01-19T01:26:29.895Z,19.34
2023-01-19T01:27:31.702Z,19.32
2023-01-19T01:28:33.555Z,19.34
2023-01-19T01:29:35.532Z,19.35
2023-01-19T01:30:37.365Z,19.34
2023-01-19T01:31:39.223Z,19.29
2023-01-19T01:32:39.959Z,19.27
2023-01-19T01:33:42.119Z,19.32
2023-01-19T01:34:41.841Z,19.29
2023-01-19T01:35:43.644Z,19.26
2023-01-19T01:36:45.460Z,19.23
2023-01-19T01:37:47.264Z,19.27
2023-01-19T01:38:49.059Z,19.26
2023-01-19T01:39:50.862Z,19.26
2023-01-19T01:40:52.661Z,19.29
2023-01-19T01:41:54.022Z,19.30
2023-01-19T01:42:55.053Z,19.32
2023-01-19T01:43:56.860Z,19.30
2023-01-19T01:44:58.727Z,19.30
2023-01-19T01:46:00.640Z,19.34
2023-01-19T01:47:02.520Z,19.34
2023-01-19T01:48:03.272Z,19.35
2023-01-19T01:49:05.073Z,19.32
2023-01-19T01:50:06.875Z,19.30
2023-01-19T01:51:08.678Z,19.30
2023-01-19T01:52:10.516Z,19.30
2023-01-19T01:53:12.548Z,19.32
2023-01-19T01:54:12.394Z,19.30
2023-01-19T01:55:14.412Z,19.32
2023-01-19T01:56:16.210Z,19.32
2023-01-19T01:57:16.342Z,19.34
2023-01-19T01:58:18.138Z,19.35
2023-01-19T01:59:19.943Z,19.37
2023-01-19T02:00:21.763Z,19.34
2023-01-19T02:01:22.584Z,19.34
2023-01-19T02:02:23.576Z,19.38
2023-01-19T02:03:23.950Z,19.37
2023-01-19T02:04:25.718Z,19.38
2023-01-19T02:05:27.524Z,19.35
2023-01-19T02:06:29.314Z,19.35
2023-01-19T02:07:30.077Z,19.37
2023-01-19T02:08:31.600Z,19.30
2023-01-19T02:09:33.393Z,19.32
2023-01-19T02:10:34.149Z,19.34
2023-01-19T02:11:35.636Z,19.30
2023-01-19T02:12:37.449Z,19.34
2023-01-19T02:13:38.193Z,19.35
2023-01-19T02:14:39.993Z,19.30
2023-01-19T02:15:41.821Z,19.32
2023-01-19T02:16:43.720Z,19.34
2023-01-19T02:17:45.593Z,19.29
2023-01-19T02:18:47.395Z,19.34
2023-01-19T02:19:48.140Z,19.34
2023-01-19T02:20:48.919Z,19.34
2023-01-19T02:21:49.282Z,19.37
2023-01-19T02:22:51.145Z,19.30
2023-01-19T02:23:53.158Z,19.34
2023-01-19T02:24:54.971Z,19.34
2023-01-19T02:25:56.764Z,19.35
2023-01-19T02:26:57.509Z,19.38
2023-01-19T02:27:59.315Z,19.35
2023-01-19T02:29:01.114Z,19.34
2023-01-19T02:30:02.915Z,19.35
2023-01-19T02:31:04.785Z,19.32
2023-01-19T02:32:05.536Z,19.30
2023-01-19T02:33:07.350Z,19.37
2023-01-19T02:34:09.154Z,19.35
2023-01-19T02:35:11.013Z,19.37
2023-01-19T02:36:12.806Z,19.37
2023-01-19T02:37:14.609Z,19.37
2023-01-19T02:38:15.364Z,19.34
2023-01-19T02:39:17.156Z,19.34
2023-01-19T02:40:18.978Z,19.34
2023-01-19T02:41:20.776Z,19.35
2023-01-19T02:42:22.583Z,19.34
2023-01-19T02:43:23.341Z,19.30
2023-01-19T02:44:25.138Z,19.37
2023-01-19T02:45:26.934Z,19.35
2023-01-19T02:46:28.769Z,19.35
2023-01-19T02:47:30.562Z,19.29
2023-01-19T02:48:31.321Z,19.30
2023-01-19T02:49:33.117Z,19.34
2023-01-19T02:50:34.916Z,19.29
2023-01-19T02:51:36.737Z,19.34
2023-01-19T02:52:38.534Z,19.34
2023-01-19T02:53:39.290Z,19.30
2023-01-19T02:54:41.094Z,19.34
2023-01-19T02:55:42.883Z,19.34
2023-01-19T02:56:44.691Z,19.32
2023-01-19T02:57:46.706Z,19.34
2023-01-19T02:58:47.471Z,19.34
2023-01-19T02:59:49.283Z,19.30
2023-01-19T03:00:51.121Z,19.34
2023-01-19T03:01:53.094Z,19.35
2023-01-19T03:02:55.067Z,19.30
2023-01-19T03:03:56.887Z,19.29
2023-01-19T03:04:56.878Z,19.29
2023-01-19T03:05:58.625Z,19.27
2023-01-19T03:07:00.417Z,19.29
2023-01-19T03:08:01.154Z,19.32
2023-01-19T03:09:02.077Z,19.35
2023-01-19T03:10:02.343Z,19.35
2023-01-19T03:11:04.196Z,19.32
2023-01-19T03:12:06.002Z,19.30
2023-01-19T03:13:06.193Z,19.35
2023-01-19T03:14:08.036Z,19.37
2023-01-19T03:15:09.834Z,19.38
2023-01-19T03:16:10.703Z,19.34
2023-01-19T03:17:11.587Z,19.32
2023-01-19T03:18:11.914Z,19.35
2023-01-19T03:19:13.893Z,19.35
2023-01-19T03:20:15.689Z,19.37
2023-01-19T03:21:16.435Z,19.32
2023-01-19T03:22:18.257Z,19.29
2023-01-19T03:23:20.071Z,19.29
2023-01-19T03:24:21.901Z,19.29
2023-01-19T03:25:23.694Z,19.29
2023-01-19T03:26:24.438Z,19.30
2023-01-19T03:27:26.030Z,19.30
2023-01-19T03:28:27.841Z,19.30
2023-01-19T03:29:28.594Z,19.30
2023-01-19T03:30:30.081Z,19.27
2023-01-19T03:31:31.876Z,19.29
2023-01-19T03:32:32.646Z,19.35
2023-01-19T03:33:34.448Z,19.32
2023-01-19T03:34:36.254Z,19.29
2023-01-19T03:35:38.053Z,19.24
2023-01-19T03:36:38.800Z,19.29
2023-01-19T03:37:40.604Z,19.24
2023-01-19T03:38:42.406Z,19.23
2023-01-19T03:39:44.228Z,19.29
2023-01-19T03:40:46.040Z,19.27
2023-01-19T03:41:46.782Z,19.35
2023-01-19T03:42:48.583Z,19.35
2023-01-19T03:43:50.383Z,19.34
2023-01-19T03:44:52.233Z,19.34
2023-01-19T03:45:54.056Z,19.29
2023-01-19T03:46:54.868Z,19.27
2023-01-19T03:47:56.671Z,19.27
2023-01-19T03:48:58.471Z,19.26
2023-01-19T03:50:00.290Z,19.30
2023-01-19T03:51:01.054Z,19.34
2023-01-19T03:52:02.859Z,19.32
2023-01-19T03:53:04.658Z,19.30
2023-01-19T03:54:06.466Z,19.30
2023-01-19T03:55:08.281Z,19.34
2023-01-19T03:56:09.031Z,19.32
2023-01-19T03:57:10.823Z,19.26
2023-01-19T03:58:12.613Z,19.27
2023-01-19T03:59:14.411Z,19.30
2023-01-19T04:00:15.184Z,19.32
2023-01-19T04:01:17.038Z,19.29
2023-01-19T04:02:18.921Z,19.29
2023-01-19T04:03:20.742Z,19.32
2023-01-19T04:04:22.533Z,19.32
2023-01-19T04:05:24.348Z,19.29
2023-01-19T04:06:25.084Z,19.27
2023-01-19T04:07:26.548Z,19.30
2023-01-19T04:08:28.348Z,19.32
2023-01-19T04:09:28.378Z,19.29
2023-01-19T04:10:28.492Z,19.32
2023-01-19T04:11:30.410Z,19.34
2023-01-19T04:12:32.215Z,19.34
2023-01-19T04:13:32.961Z,19.34
2023-01-19T04:14:34.454Z,19.34
2023-01-19T04:15:36.329Z,19.35
2023-01-19T04:16:37.094Z,19.30
2023-01-19T04:17:38.881Z,19.30
2023-01-19T04:18:40.706Z,19.34
2023-01-19T04:19:42.520Z,19.37
2023-01-19T04:20:44.393Z,19.35
2023-01-19T04:21:45.136Z,19.34
2023-01-19T04:22:46.938Z,19.35
2023-01-19T04:23:48.726Z,19.32
2023-01-19T04:24:50.530Z,19.32
2023-01-19T04:25:51.296Z,19.27
2023-01-19T04:26:53.093Z,19.26
2023-01-19T04:27:54.896Z,19.26
2023-01-19T04:28:56.682Z,19.27
2023-01-19T04:29:58.480Z,19.29
2023-01-19T04:30:59.281Z,19.30
2023-01-19T04:32:01.100Z,19.29
2023-01-19T04:33:03.365Z,19.32
2023-01-19T04:34:03.279Z,19.30
2023-01-19T04:35:05.077Z,19.30
2023-01-19T04:36:06.879Z,19.29
2023-01-19T04:37:08.674Z,19.34
2023-01-19T04:38:10.472Z,19.38
2023-01-19T04:39:11.208Z,19.39
2023-01-19T04:40:13.009Z,19.39
2023-01-19T04:41:14.829Z,19.38
2023-01-19T04:42:16.634Z,19.35
2023-01-19T04:43:18.432Z,19.32
2023-01-19T04:44:20.446Z,19.35
2023-01-19T04:45:20.737Z,19.35
2023-01-19T04:46:22.688Z,19.34
2023-01-19T04:47:24.522Z,19.39
2023-01-19T04:48:26.383Z,19.38
2023-01-19T04:49:27.150Z,19.38
2023-01-19T04:50:28.932Z,19.37
2023-01-19T04:51:30.748Z,19.35
2023-01-19T04:52:32.582Z,19.32
2023-01-19T04:53:34.387Z,19.35
2023-01-19T04:54:35.203Z,19.37
2023-01-19T04:55:35.986Z,19.39
2023-01-19T04:56:36.347Z,19.39
2023-01-19T04:57:38.161Z,19.39
2023-01-19T04:58:39.958Z,19.37
2023-01-19T04:59:41.767Z,19.37
2023-01-19T05:00:43.760Z,19.37
2023-01-19T05:01:44.576Z,19.39
2023-01-19T05:02:45.449Z,19.39
2023-01-19T05:03:45.663Z,19.39
2023-01-19T05:04:47.581Z,19.42
2023-01-19T05:05:49.371Z,19.38
2023-01-19T05:06:51.179Z,19.34
2023-01-19T05:07:51.923Z,19.38
2023-01-19T05:08:53.722Z,19.41
2023-01-19T05:09:55.523Z,19.39
2023-01-19T05:10:57.336Z,19.37
2023-01-19T05:11:59.151Z,19.39
2023-01-19T05:13:00.323Z,19.44
2023-01-19T05:14:01.345Z,19.45
2023-01-19T05:15:03.215Z,19.44
2023-01-19T05:16:05.064Z,19.44
2023-01-19T05:17:05.850Z,19.42
2023-01-19T05:18:07.632Z,19.41
2023-01-19T05:19:09.450Z,19.42
2023-01-19T05:20:11.281Z,19.41
2023-01-19T05:21:13.067Z,19.39
2023-01-19T05:22:13.862Z,19.42
2023-01-19T05:23:15.658Z,19.41
2023-01-19T05:24:17.459Z,19.41
2023-01-19T05:25:19.253Z,19.39
2023-01-19T05:26:21.060Z,19.35
2023-01-19T05:27:21.832Z,19.37
2023-01-19T05:28:23.280Z,19.38
2023-01-19T05:29:25.092Z,19.38
2023-01-19T05:30:25.866Z,19.37
2023-01-19T05:31:27.813Z,19.39
2023-01-19T05:32:29.687Z,19.42
2023-01-19T05:33:31.497Z,19.41
2023-01-19T05:34:33.299Z,19.41
2023-01-19T05:35:36.430Z,19.41
2023-01-19T05:36:35.318Z,19.41
2023-01-19T05:37:37.299Z,19.42
2023-01-19T05:38:39.318Z,19.44
2023-01-19T05:39:41.141Z,19.41
2023-01-19T05:40:42.959Z,19.45
2023-01-19T05:41:43.703Z,19.47
2023-01-19T05:42:45.512Z,19.45
2023-01-19T05:43:47.387Z,19.45
2023-01-19T05:44:49.192Z,19.44
2023-01-19T05:45:50.987Z,19.42
2023-01-19T05:46:51.853Z,19.42
2023-01-19T05:47:52.653Z,19.44
2023-01-19T05:48:52.900Z,19.44
2023-01-19T05:49:54.745Z,19.42
2023-01-19T05:50:56.569Z,19.44
2023-01-19T05:51:57.224Z,19.41
2023-01-19T05:52:59.330Z,19.38
2023-01-19T05:54:00.287Z,19.35
2023-01-19T05:55:01.030Z,19.34
2023-01-19T05:56:02.521Z,19.34
2023-01-19T05:57:04.356Z,19.35
2023-01-19T05:58:05.123Z,19.39
2023-01-19T05:59:06.856Z,19.37
2023-01-19T06:00:08.653Z,19.39
2023-01-19T06:01:10.498Z,19.39
2023-01-19T06:02:12.429Z,19.42
2023-01-19T06:03:12.654Z,19.41
2023-01-19T06:04:14.378Z,19.39
2023-01-19T06:05:16.193Z,19.41
2023-01-19T06:06:16.965Z,19.41
2023-01-19T06:07:18.758Z,19.39
2023-01-19T06:08:20.580Z,19.39
2023-01-19T06:09:22.372Z,19.42
2023-01-19T06:10:24.171Z,19.44
2023-01-19T06:11:24.905Z,19.44
2023-01-19T06:12:26.710Z,19.39
2023-01-19T06:13:28.540Z,19.41
2023-01-19T06:14:30.362Z,19.45
2023-01-19T06:15:32.175Z,19.39
2023-01-19T06:16:34.087Z,19.39
2023-01-19T06:17:34.834Z,19.41
2023-01-19T06:18:36.651Z,19.38
2023-01-19T06:19:38.659Z,19.42
2023-01-19T06:20:40.463Z,19.38
2023-01-19T06:21:42.281Z,19.39
2023-01-19T06:22:44.187Z,19.38
2023-01-19T06:23:46.016Z,19.39
2023-01-19T06:24:46.757Z,19.44
2023-01-19T06:25:48.558Z,19.47
2023-01-19T06:26:50.369Z,19.44
2023-01-19T06:27:52.159Z,19.42
2023-01-19T06:28:52.905Z,19.45
2023-01-19T06:29:54.720Z,19.44
2023-01-19T06:30:56.568Z,19.45
2023-01-19T06:31:58.449Z,19.42
2023-01-19T06:33:00.534Z,19.42
2023-01-19T06:34:00.446Z,19.42
2023-01-19T06:35:02.059Z,19.44
2023-01-19T06:36:03.897Z,19.48
2023-01-19T06:37:04.682Z,19.48
2023-01-19T06:38:06.460Z,19.45
2023-01-19T06:39:08.273Z,19.41
2023-01-19T06:40:10.066Z,19.39
2023-01-19T06:41:11.861Z,19.41
2023-01-19T06:42:12.621Z,19.41
2023-01-19T06:43:14.418Z,19.47
2023-01-19T06:44:16.224Z,19.48
2023-01-19T06:45:18.016Z,19.52
2023-01-19T06:46:19.799Z,19.47
2023-01-19T06:47:20.550Z,19.45
2023-01-19T06:48:22.374Z,19.45
2023-01-19T06:49:24.188Z,19.45
2023-01-19T06:50:26.025Z,19.44
2023-01-19T06:51:27.827Z,19.44
2023-01-19T06:52:29.849Z,19.42
2023-01-19T06:53:31.652Z,19.45
2023-01-19T06:54:33.473Z,19.48
2023-01-19T06:55:34.223Z,19.47
2023-01-19T06:56:36.017Z,19.47
2023-01-19T06:57:38.002Z,19.44
2023-01-19T06:58:39.815Z,19.47
2023-01-19T06:59:41.633Z,19.48
2023-01-19T07:00:43.472Z,19.45
2023-01-19T07:01:45.473Z,19.44
2023-01-19T07:02:47.399Z,19.48
2023-01-19T07:03:48.138Z,19.47
2023-01-19T07:04:49.955Z,19.47
2023-01-19T07:05:51.758Z,19.41
2023-01-19T07:06:53.589Z,19.41
2023-01-19T07:07:55.420Z,19.39
2023-01-19T07:08:56.163Z,19.35
2023-01-19T07:09:57.976Z,19.39
2023-01-19T07:11:25.729Z,19.44
2023-01-19T07:12:01.784Z,19.44
2023-01-19T07:13:04.043Z,19.41
2023-01-19T07:14:03.877Z,19.45
2023-01-19T07:15:05.577Z,19.44
2023-01-19T07:16:08.253Z,19.47
2023-01-19T07:17:08.033Z,19.45
2023-01-19T07:18:09.504Z,19.44
2023-01-19T07:19:11.312Z,19.42
2023-01-19T07:20:12.132Z,19.47
2023-01-19T07:21:13.948Z,19.48
2023-01-19T07:22:15.748Z,19.47
2023-01-19T07:23:17.788Z,19.49
2023-01-19T07:24:19.641Z,19.52
2023-01-19T07:25:21.478Z,19.52
2023-01-19T07:26:22.280Z,19.52
2023-01-19T07:27:24.065Z,19.48
2023-01-19T07:28:25.880Z,19.49
2023-01-19T07:29:27.714Z,19.49
2023-01-19T07:30:29.660Z,19.47
2023-01-19T07:31:31.644Z,19.47
2023-01-19T07:32:31.618Z,19.53
2023-01-19T07:33:33.540Z,19.56
2023-01-19T07:34:35.335Z,19.56
2023-01-19T07:35:36.128Z,19.55
2023-01-19T07:36:37.933Z,19.53
2023-01-19T07:37:39.728Z,19.53
2023-01-19T07:38:41.540Z,19.48
2023-01-19T07:39:43.338Z,19.48
2023-01-19T07:40:44.099Z,19.49
2023-01-19T07:41:45.884Z,19.53
2023-01-19T07:42:47.717Z,19.44
2023-01-19T07:43:49.527Z,19.44
2023-01-19T07:44:51.344Z,19.42
2023-01-19T07:45:52.189Z,19.42
2023-01-19T07:46:54.058Z,19.41
2023-01-19T07:47:55.873Z,19.41
2023-01-19T07:48:57.667Z,19.35
2023-01-19T07:49:59.459Z,19.39
2023-01-19T07:51:00.222Z,19.39
2023-01-19T07:52:02.018Z,19.41
2023-01-19T07:53:03.848Z,19.48
2023-01-19T07:54:05.677Z,19.48
2023-01-19T07:55:07.468Z,19.48
2023-01-19T07:56:08.232Z,19.49
2023-01-19T07:57:10.022Z,19.55
2023-01-19T07:58:11.830Z,19.59
2023-01-19T07:59:13.629Z,19.60
2023-01-19T08:00:15.425Z,19.60
2023-01-19T08:01:16.304Z,19.57
2023-01-19T08:02:18.199Z,19.62
2023-01-19T08:03:19.993Z,19.63
2023-01-19T08:04:21.942Z,19.62
2023-01-19T08:05:23.768Z,19.63
2023-01-19T08:06:25.597Z,19.63
2023-01-19T08:07:26.358Z,19.64
2023-01-19T08:08:28.157Z,19.67
2023-01-19T08:09:29.977Z,19.66
2023-01-19T08:10:31.814Z,19.64
2023-01-19T08:11:33.640Z,19.67
2023-01-19T08:12:34.385Z,19.72
2023-01-19T08:13:36.196Z,19.71
2023-01-19T08:14:37.992Z,19.69
2023-01-19T08:15:39.824Z,19.72
2023-01-19T08:16:41.657Z,19.69
2023-01-19T08:17:42.409Z,19.71
2023-01-19T08:18:43.881Z,19.76
2023-01-19T08:19:45.675Z,19.72
2023-01-19T08:20:46.406Z,19.71
2023-01-19T08:21:48.250Z,19.69
2023-01-19T08:22:50.082Z,19.69
2023-01-19T08:23:51.908Z,19.72
2023-01-19T08:24:52.697Z,19.69
2023-01-19T08:25:54.507Z,19.67
2023-01-19T08:26:56.341Z,19.67
2023-01-19T08:27:58.145Z,19.69
2023-01-19T08:29:00.158Z,19.69
2023-01-19T08:30:01.959Z,19.64
2023-01-19T08:31:18.368Z,19.67
2023-01-19T08:32:04.667Z,19.71
2023-01-19T08:33:06.537Z,19.72
2023-01-19T08:34:08.354Z,19.72
2023-01-19T08:35:10.155Z,19.74
2023-01-19T08:36:10.895Z,19.72
2023-01-19T08:37:12.747Z,19.72
2023-01-19T08:38:14.553Z,19.74
2023-01-19T08:39:16.352Z,19.71
2023-01-19T08:40:18.176Z,19.69
2023-01-19T08:41:18.273Z,19.69
2023-01-19T08:42:20.355Z,19.71
2023-01-19T08:43:22.157Z,19.74
2023-01-19T08:44:22.927Z,19.78
2023-01-19T08:45:24.728Z,19.71
2023-01-19T08:46:26.560Z,19.71
2023-01-19T08:47:28.424Z,19.72
2023-01-19T08:48:30.237Z,19.74
2023-01-19T08:49:30.994Z,19.72
2023-01-19T08:50:32.809Z,19.74
2023-01-19T08:51:34.624Z,19.71
2023-01-19T08:52:36.438Z,19.69
2023-01-19T08:53:38.240Z,19.71
2023-01-19T08:54:38.980Z,19.66
2023-01-19T08:55:40.870Z,19.67
2023-01-19T08:56:42.669Z,19.71
2023-01-19T08:57:44.486Z,19.72
2023-01-19T08:58:51.193Z,19.71
2023-01-19T08:59:46.541Z,19.69
2023-01-19T09:00:48.415Z,19.71
2023-01-19T09:01:50.468Z,19.74
2023-01-19T09:02:50.318Z,19.74
2023-01-19T09:03:52.333Z,19.74
2023-01-19T09:04:54.131Z,19.71
2023-01-19T09:05:55.956Z,19.71
2023-01-19T09:06:56.727Z,19.69
2023-01-19T09:07:58.819Z,19.71
2023-01-19T09:08:59.761Z,19.67
2023-01-19T09:10:00.519Z,19.71
2023-01-19T09:11:02.352Z,19.67
2023-01-19T09:12:04.152Z,19.71
2023-01-19T09:13:05.974Z,19.80
2023-01-19T09:14:07.784Z,19.78
2023-01-19T09:15:09.708Z,19.78
2023-01-19T09:16:10.523Z,19.78
2023-01-19T09:17:12.337Z,19.78
2023-01-19T09:18:14.151Z,19.79
2023-01-19T09:19:15.967Z,19.78
2023-01-19T09:20:17.775Z,19.80
2023-01-19T09:21:19.817Z,19.74
2023-01-19T09:22:20.584Z,19.76
2023-01-19T09:23:22.402Z,19.74
2023-01-19T09:24:24.196Z,19.76
2023-01-19T09:25:25.995Z,19.79
2023-01-19T09:26:27.925Z,19.79
2023-01-19T09:27:28.662Z,19.80
2023-01-19T09:28:30.499Z,19.74
2023-01-19T09:29:32.333Z,19.79
2023-01-19T09:30:34.187Z,19.82
2023-01-19T09:31:36.083Z,19.82
2023-01-19T09:32:37.890Z,19.79
2023-01-19T09:33:38.656Z,19.80
2023-01-19T09:34:40.464Z,19.83
2023-01-19T09:35:42.294Z,19.79
2023-01-19T09:36:44.107Z,19.80
2023-01-19T09:37:45.925Z,19.79
2023-01-19T09:38:47.747Z,19.80
2023-01-19T09:39:48.762Z,19.80
2023-01-19T09:40:49.984Z,19.79
2023-01-19T09:41:51.817Z,19.83
2023-01-19T09:42:52.568Z,19.83
2023-01-19T09:43:54.378Z,19.90
2023-01-19T09:44:56.206Z,19.90
2023-01-19T09:45:58.003Z,19.82
2023-01-19T09:46:59.808Z,19.80
2023-01-19T09:48:01.048Z,19.82
2023-01-19T09:49:02.051Z,19.80
2023-01-19T09:50:03.845Z,19.82
2023-01-19T09:51:05.641Z,19.79
2023-01-19T09:52:06.381Z,19.79
2023-01-19T09:53:08.188Z,19.85
2023-01-19T09:54:10.009Z,19.83
2023-01-19T09:55:11.825Z,19.83
2023-01-19T09:56:13.640Z,19.82
2023-01-19T09:57:15.818Z,19.83
2023-01-19T09:58:15.511Z,19.83
2023-01-19T09:59:15.577Z,19.83
2023-01-19T10:00:17.423Z,19.82
2023-01-19T10:01:19.360Z,19.85
2023-01-19T10:02:21.204Z,19.88
2023-01-19T10:03:21.978Z,19.88
2023-01-19T10:04:24.164Z,19.90
2023-01-19T10:05:24.913Z,19.83
2023-01-19T10:06:25.660Z,19.88
2023-01-19T10:07:27.226Z,19.90
2023-01-19T10:08:29.035Z,19.86
2023-01-19T10:09:29.796Z,19.86
2023-01-19T10:10:31.591Z,19.86
2023-01-19T10:11:42.079Z,19.85
2023-01-19T10:12:35.172Z,19.88
2023-01-19T10:13:36.956Z,19.90
2023-01-19T10:14:37.724Z,19.88
2023-01-19T10:15:39.239Z,19.88
2023-01-19T10:16:41.038Z,19.90
2023-01-19T10:17:41.813Z,19.91
2023-01-19T10:18:43.619Z,19.95
2023-01-19T10:19:46.689Z,19.90
2023-01-19T10:20:45.553Z,19.90
2023-01-19T10:21:47.089Z,19.91
2023-01-19T10:22:48.889Z,19.94
2023-01-19T10:23:49.721Z,19.95
2023-01-19T10:24:51.536Z,19.93
2023-01-19T10:25:53.471Z,19.97
2023-01-19T10:26:55.314Z,19.94
2023-01-19T10:27:57.133Z,19.91
2023-01-19T10:28:57.894Z,19.93
2023-01-19T10:29:59.726Z,19.93
2023-01-19T10:31:01.744Z,19.94
2023-01-19T10:32:03.666Z,20.00
2023-01-19T10:33:05.485Z,19.97
2023-01-19T10:34:07.322Z,20.03
2023-01-19T10:35:08.087Z,20.01
2023-01-19T10:36:09.881Z,20.01
2023-01-19T10:37:11.683Z,20.03
2023-01-19T10:38:13.534Z,20.04
2023-01-19T10:39:15.353Z,20.01
2023-01-19T10:40:15.888Z,20.04
2023-01-19T10:41:17.442Z,20.01
2023-01-19T10:42:19.316Z,20.07
2023-01-19T10:43:21.241Z,20.12
2023-01-19T10:44:21.992Z,20.09
2023-01-19T10:45:24.016Z,20.10
2023-01-19T10:46:26.050Z,20.09
2023-01-19T10:47:27.873Z,20.10
2023-01-19T10:48:29.688Z,20.09
2023-01-19T10:49:31.521Z,20.09
2023-01-19T10:50:31.581Z,20.05
2023-01-19T10:51:33.410Z,20.01
2023-01-19T10:52:35.215Z,20.01
2023-01-19T10:53:36.005Z,19.97
2023-01-19T10:54:37.816Z,20.01
2023-01-19T10:55:39.669Z,19.94
2023-01-19T10:56:41.528Z,19.94
2023-01-19T10:57:43.405Z,19.98
2023-01-19T10:58:45.320Z,20.01
2023-01-19T10:59:45.295Z,20.03
2023-01-19T11:00:45.343Z,20.03
2023-01-19T11:01:47.498Z,20.03
2023-01-19T11:02:47.426Z,20.03
2023-01-19T11:03:49.149Z,20.09
2023-01-19T11:04:50.968Z,20.03
2023-01-19T11:05:52.789Z,20.03
2023-01-19T11:06:53.530Z,20.05
2023-01-19T11:07:55.337Z,20.09
2023-01-19T11:08:57.151Z,20.10
2023-01-19T11:09:58.941Z,20.07
2023-01-19T11:11:00.767Z,20.07
2023-01-19T11:12:01.515Z,20.03
2023-01-19T11:13:03.965Z,20.10
2023-01-19T11:14:05.075Z,20.03
2023-01-19T11:15:06.879Z,20.09
2023-01-19T11:16:09.977Z,20.12
2023-01-19T11:17:09.168Z,20.13
2023-01-19T11:18:10.834Z,20.18
2023-01-19T11:19:12.636Z,20.18
2023-01-19T11:20:13.377Z,20.18
2023-01-19T11:21:15.197Z,20.19
2023-01-19T11:22:17.003Z,20.20
2023-01-19T11:23:18.817Z,20.22
2023-01-19T11:24:20.622Z,20.25
2023-01-19T11:25:21.392Z,20.27
2023-01-19T11:26:23.216Z,20.27
2023-01-19T11:27:25.024Z,20.27
2023-01-19T11:28:26.833Z,20.25
2023-01-19T11:29:28.681Z,20.22
2023-01-19T11:30:29.423Z,20.19
2023-01-19T11:31:31.307Z,20.19
2023-01-19T11:32:33.162Z,20.15
2023-01-19T11:33:34.958Z,20.20
2023-01-19T11:34:36.761Z,20.15
2023-01-19T11:35:38.590Z,20.16
2023-01-19T11:36:39.369Z,20.23
2023-01-19T11:37:40.813Z,20.22
2023-01-19T11:38:42.639Z,20.18
2023-01-19T11:39:43.365Z,20.18
2023-01-19T11:40:45.169Z,20.19
2023-01-19T11:41:46.974Z,20.25
2023-01-19T11:42:48.766Z,20.27
2023-01-19T11:43:50.627Z,20.30
2023-01-19T11:44:51.402Z,20.30
2023-01-19T11:45:53.214Z,20.30
2023-01-19T11:46:55.139Z,20.27
2023-01-19T11:47:56.939Z,20.23
2023-01-19T11:48:58.739Z,20.27
2023-01-19T11:50:00.630Z,20.27
2023-01-19T11:51:02.728Z,20.23
2023-01-19T11:52:03.485Z,20.25
2023-01-19T11:53:05.296Z,20.25
2023-01-19T11:54:07.096Z,20.27
2023-01-19T11:55:08.897Z,20.27
2023-01-19T11:56:10.680Z,20.27
2023-01-19T11:57:11.455Z,20.25
2023-01-19T11:58:13.242Z,20.28
2023-01-19T11:59:15.036Z,20.34
2023-01-19T12:00:16.862Z,20.28
2023-01-19T12:01:18.714Z,20.27
2023-01-19T12:02:19.580Z,20.27
2023-01-19T12:03:20.418Z,20.35
2023-01-19T12:04:20.647Z,20.52
2023-01-19T12:05:22.483Z,20.56
2023-01-19T12:06:24.288Z,20.58
2023-01-19T12:07:25.067Z,20.62
2023-01-19T12:08:26.693Z,20.62
2023-01-19T12:09:28.495Z,20.46
2023-01-19T12:10:30.289Z,20.35
2023-01-19T12:11:32.085Z,20.34
2023-01-19T12:12:32.847Z,20.25
2023-01-19T12:13:34.646Z,20.25
2023-01-19T12:14:36.444Z,20.25
2023-01-19T12:15:38.276Z,20.28
2023-01-19T12:16:40.132Z,20.30
2023-01-19T12:17:40.899Z,20.33
2023-01-19T12:18:42.700Z,20.33
2023-01-19T12:19:44.513Z,20.33
2023-01-19T12:20:46.334Z,20.34
2023-01-19T12:21:48.139Z,20.38
2023-01-19T12:22:48.910Z,20.41
2023-01-19T12:23:50.714Z,20.43
2023-01-19T12:24:52.513Z,20.38
2023-01-19T12:25:55.010Z,20.35
2023-01-19T12:26:54.739Z,20.40
2023-01-19T12:27:56.562Z,20.37
2023-01-19T12:28:58.366Z,20.40
2023-01-19T12:30:00.197Z,20.41
2023-01-19T12:31:02.126Z,20.38
2023-01-19T12:32:03.993Z,20.38
2023-01-19T12:33:06.192Z,20.37
2023-01-19T12:34:06.894Z,20.40
2023-01-19T12:35:07.894Z,20.43
2023-01-19T12:36:09.709Z,20.50
2023-01-19T12:37:13.665Z,20.50
2023-01-19T12:38:13.455Z,20.46
2023-01-19T12:39:14.203Z,20.35
2023-01-19T12:40:16.014Z,20.34
2023-01-19T12:41:17.814Z,20.35
2023-01-19T12:42:21.348Z,20.34
2023-01-19T12:43:21.198Z,20.30
2023-01-19T12:44:21.969Z,20.28
2023-01-19T12:45:23.781Z,20.31
2023-01-19T12:46:27.867Z,20.30
2023-01-19T12:47:27.561Z,20.23
2023-01-19T12:48:29.367Z,20.22
2023-01-19T12:49:31.182Z,20.23
2023-01-19T12:50:31.926Z,20.22
2023-01-19T12:51:33.741Z,20.19
2023-01-19T12:52:35.550Z,20.20
2023-01-19T12:53:37.368Z,20.23
2023-01-19T12:54:39.151Z,20.27
2023-01-19T12:55:40.984Z,20.28
2023-01-19T12:56:41.725Z,20.31
2023-01-19T12:57:43.539Z,20.31
2023-01-19T12:58:45.344Z,20.37
2023-01-19T12:59:48.626Z,20.44
2023-01-19T13:00:51.705Z,20.55
2023-01-19T13:01:51.559Z,20.55
2023-01-19T13:02:53.485Z,20.52
2023-01-19T13:03:55.330Z,20.49
2023-01-19T13:04:57.124Z,20.43
2023-01-19T13:05:58.936Z,20.40
2023-01-19T13:07:00.746Z,20.35
2023-01-19T13:08:02.584Z,20.46
2023-01-19T13:09:04.439Z,20.43
2023-01-19T13:10:05.195Z,20.40
2023-01-19T13:11:06.995Z,20.41
2023-01-19T13:12:08.807Z,20.37